sensor_id;sensor_type;location;lat;lon;timestamp;P1;durP1;ratioP1;P2;durP2;ratioP2
77214;SDS011;66210;53.282;9.864;2024-01-10T00:02:23;18.83;;;11.60;;
77214;SDS011;66210;53.282;9.864;2024-01-10T00:04:49;34.97;;;12.80;;
77214;SDS011;66210;53.282;9.864;2024-01-10T00:07:17;29.95;;;11.27;;
77214;SDS011;66210;53.282;9.864;2024-01-10T00:09:43;27.13;;;11.57;;
77214;SDS011;66210;53.282;9.864;2024-01-10T00:12:11;25.20;;;12.93;;
77214;SDS011;66210;53.282;9.864;2024-01-10T00:14:38;22.23;;;11.50;;
77214;SDS011;66210;53.282;9.864;2024-01-10T00:17:05;28.50;;;11.38;;
77214;SDS011;66210;53.282;9.864;2024-01-10T00:19:31;23.83;;;10.05;;
77214;SDS011;66210;53.282;9.864;2024-01-10T00:21:58;29.20;;;10.30;;
77214;SDS011;66210;53.282;9.864;2024-01-10T00:24:24;27.58;;;11.27;;
77214;SDS011;66210;53.282;9.864;2024-01-10T00:26:51;22.08;;;10.82;;
77214;SDS011;66210;53.282;9.864;2024-01-10T00:29:17;28.27;;;11.30;;
77214;SDS011;66210;53.282;9.864;2024-01-10T00:31:44;22.08;;;10.98;;
77214;SDS011;66210;53.282;9.864;2024-01-10T00:34:11;24.33;;;10.85;;
77214;SDS011;66210;53.282;9.864;2024-01-10T00:36:37;26.08;;;11.02;;
77214;SDS011;66210;53.282;9.864;2024-01-10T00:39:04;23.05;;;10.15;;
77214;SDS011;66210;53.282;9.864;2024-01-10T00:41:30;21.25;;;10.32;;
77214;SDS011;66210;53.282;9.864;2024-01-10T00:43:57;18.52;;;8.68;;
77214;SDS011;66210;53.282;9.864;2024-01-10T00:46:24;17.27;;;8.93;;
77214;SDS011;66210;53.282;9.864;2024-01-10T00:48:50;17.35;;;9.88;;
77214;SDS011;66210;53.282;9.864;2024-01-10T00:51:17;21.42;;;9.23;;
77214;SDS011;66210;53.282;9.864;2024-01-10T00:53:44;19.05;;;9.07;;
77214;SDS011;66210;53.282;9.864;2024-01-10T00:56:10;14.02;;;8.02;;
77214;SDS011;66210;53.282;9.864;2024-01-10T00:58:38;15.20;;;8.23;;
77214;SDS011;66210;53.282;9.864;2024-01-10T01:01:04;17.00;;;8.38;;
77214;SDS011;66210;53.282;9.864;2024-01-10T01:03:31;16.80;;;8.57;;
77214;SDS011;66210;53.282;9.864;2024-01-10T01:05:57;15.77;;;7.50;;
77214;SDS011;66210;53.282;9.864;2024-01-10T01:08:24;20.10;;;9.85;;
77214;SDS011;66210;53.282;9.864;2024-01-10T01:10:51;19.42;;;8.38;;
77214;SDS011;66210;53.282;9.864;2024-01-10T01:13:17;16.30;;;8.45;;
77214;SDS011;66210;53.282;9.864;2024-01-10T01:15:44;17.73;;;9.05;;
77214;SDS011;66210;53.282;9.864;2024-01-10T01:18:11;13.77;;;7.70;;
77214;SDS011;66210;53.282;9.864;2024-01-10T01:20:39;16.92;;;9.73;;
77214;SDS011;66210;53.282;9.864;2024-01-10T01:23:06;14.63;;;6.93;;
77214;SDS011;66210;53.282;9.864;2024-01-10T01:25:33;17.90;;;9.27;;
77214;SDS011;66210;53.282;9.864;2024-01-10T01:27:59;17.38;;;8.75;;
77214;SDS011;66210;53.282;9.864;2024-01-10T01:30:26;18.08;;;8.90;;
77214;SDS011;66210;53.282;9.864;2024-01-10T01:32:53;15.63;;;9.13;;
77214;SDS011;66210;53.282;9.864;2024-01-10T01:35:20;23.13;;;10.88;;
77214;SDS011;66210;53.282;9.864;2024-01-10T01:37:49;23.38;;;10.10;;
77214;SDS011;66210;53.282;9.864;2024-01-10T01:40:17;18.30;;;9.95;;
77214;SDS011;66210;53.282;9.864;2024-01-10T01:42:45;19.65;;;10.23;;
77214;SDS011;66210;53.282;9.864;2024-01-10T01:45:12;16.25;;;7.80;;
77214;SDS011;66210;53.282;9.864;2024-01-10T01:47:39;20.92;;;9.27;;
77214;SDS011;66210;53.282;9.864;2024-01-10T01:50:07;20.45;;;10.25;;
77214;SDS011;66210;53.282;9.864;2024-01-10T01:52:34;20.55;;;10.02;;
77214;SDS011;66210;53.282;9.864;2024-01-10T01:55:04;18.90;;;8.75;;
77214;SDS011;66210;53.282;9.864;2024-01-10T01:57:33;18.48;;;8.93;;
77214;SDS011;66210;53.282;9.864;2024-01-10T02:00:00;20.95;;;8.82;;
77214;SDS011;66210;53.282;9.864;2024-01-10T02:02:27;19.95;;;11.13;;
77214;SDS011;66210;53.282;9.864;2024-01-10T02:04:56;18.02;;;9.05;;
77214;SDS011;66210;53.282;9.864;2024-01-10T02:07:24;15.85;;;8.93;;
77214;SDS011;66210;53.282;9.864;2024-01-10T02:09:51;19.35;;;9.00;;
77214;SDS011;66210;53.282;9.864;2024-01-10T02:12:18;15.63;;;7.68;;
77214;SDS011;66210;53.282;9.864;2024-01-10T02:14:45;17.50;;;8.93;;
77214;SDS011;66210;53.282;9.864;2024-01-10T02:17:12;16.70;;;9.40;;
77214;SDS011;66210;53.282;9.864;2024-01-10T02:19:39;15.38;;;8.85;;
77214;SDS011;66210;53.282;9.864;2024-01-10T02:22:05;16.27;;;8.27;;
77214;SDS011;66210;53.282;9.864;2024-01-10T02:24:32;14.82;;;8.45;;
77214;SDS011;66210;53.282;9.864;2024-01-10T02:26:59;19.98;;;9.70;;
77214;SDS011;66210;53.282;9.864;2024-01-10T02:29:25;16.67;;;9.02;;
77214;SDS011;66210;53.282;9.864;2024-01-10T02:31:52;21.60;;;8.80;;
77214;SDS011;66210;53.282;9.864;2024-01-10T02:34:19;17.17;;;9.13;;
77214;SDS011;66210;53.282;9.864;2024-01-10T02:36:46;17.25;;;8.75;;
77214;SDS011;66210;53.282;9.864;2024-01-10T02:39:12;23.40;;;10.38;;
77214;SDS011;66210;53.282;9.864;2024-01-10T02:41:39;18.40;;;10.35;;
77214;SDS011;66210;53.282;9.864;2024-01-10T02:44:05;15.05;;;8.32;;
77214;SDS011;66210;53.282;9.864;2024-01-10T02:46:32;13.63;;;6.63;;
77214;SDS011;66210;53.282;9.864;2024-01-10T02:48:58;16.27;;;8.75;;
77214;SDS011;66210;53.282;9.864;2024-01-10T02:51:26;19.00;;;8.95;;
77214;SDS011;66210;53.282;9.864;2024-01-10T02:53:53;16.05;;;7.47;;
77214;SDS011;66210;53.282;9.864;2024-01-10T02:56:20;20.27;;;8.52;;
77214;SDS011;66210;53.282;9.864;2024-01-10T02:58:46;14.05;;;8.32;;
77214;SDS011;66210;53.282;9.864;2024-01-10T03:01:13;13.60;;;7.60;;
77214;SDS011;66210;53.282;9.864;2024-01-10T03:03:40;18.70;;;8.10;;
77214;SDS011;66210;53.282;9.864;2024-01-10T03:06:07;16.10;;;8.57;;
77214;SDS011;66210;53.282;9.864;2024-01-10T03:08:33;13.55;;;7.75;;
77214;SDS011;66210;53.282;9.864;2024-01-10T03:11:00;14.07;;;8.32;;
77214;SDS011;66210;53.282;9.864;2024-01-10T03:13:27;14.85;;;8.75;;
77214;SDS011;66210;53.282;9.864;2024-01-10T03:15:53;12.90;;;8.25;;
77214;SDS011;66210;53.282;9.864;2024-01-10T03:18:20;13.32;;;7.47;;
77214;SDS011;66210;53.282;9.864;2024-01-10T03:20:46;15.32;;;7.05;;
77214;SDS011;66210;53.282;9.864;2024-01-10T03:23:13;16.42;;;7.45;;
77214;SDS011;66210;53.282;9.864;2024-01-10T03:25:39;13.63;;;6.95;;
77214;SDS011;66210;53.282;9.864;2024-01-10T03:28:06;11.93;;;6.60;;
77214;SDS011;66210;53.282;9.864;2024-01-10T03:30:33;11.50;;;6.47;;
77214;SDS011;66210;53.282;9.864;2024-01-10T03:32:59;12.45;;;7.35;;
77214;SDS011;66210;53.282;9.864;2024-01-10T03:35:26;15.43;;;7.88;;
77214;SDS011;66210;53.282;9.864;2024-01-10T03:37:53;12.13;;;7.38;;
77214;SDS011;66210;53.282;9.864;2024-01-10T03:40:19;12.93;;;7.85;;
77214;SDS011;66210;53.282;9.864;2024-01-10T03:42:46;13.48;;;7.13;;
77214;SDS011;66210;53.282;9.864;2024-01-10T03:45:13;15.10;;;7.95;;
77214;SDS011;66210;53.282;9.864;2024-01-10T03:47:46;15.80;;;8.25;;
77214;SDS011;66210;53.282;9.864;2024-01-10T03:50:17;12.20;;;6.78;;
77214;SDS011;66210;53.282;9.864;2024-01-10T03:52:45;16.00;;;7.70;;
77214;SDS011;66210;53.282;9.864;2024-01-10T03:55:13;18.02;;;7.78;;
77214;SDS011;66210;53.282;9.864;2024-01-10T03:57:39;17.27;;;8.73;;
77214;SDS011;66210;53.282;9.864;2024-01-10T04:00:06;14.63;;;7.97;;
77214;SDS011;66210;53.282;9.864;2024-01-10T04:02:33;17.55;;;8.57;;
77214;SDS011;66210;53.282;9.864;2024-01-10T04:05:00;15.77;;;7.75;;
77214;SDS011;66210;53.282;9.864;2024-01-10T04:07:27;15.75;;;8.20;;
77214;SDS011;66210;53.282;9.864;2024-01-10T04:09:54;15.13;;;7.68;;
77214;SDS011;66210;53.282;9.864;2024-01-10T04:12:21;19.65;;;8.77;;
77214;SDS011;66210;53.282;9.864;2024-01-10T04:14:48;14.45;;;8.63;;
77214;SDS011;66210;53.282;9.864;2024-01-10T04:17:14;15.85;;;8.25;;
77214;SDS011;66210;53.282;9.864;2024-01-10T04:19:41;14.10;;;8.40;;
77214;SDS011;66210;53.282;9.864;2024-01-10T04:22:08;18.85;;;8.60;;
77214;SDS011;66210;53.282;9.864;2024-01-10T04:24:34;22.40;;;9.60;;
77214;SDS011;66210;53.282;9.864;2024-01-10T04:27:01;16.25;;;8.73;;
77214;SDS011;66210;53.282;9.864;2024-01-10T04:29:28;16.23;;;7.45;;
77214;SDS011;66210;53.282;9.864;2024-01-10T04:31:54;16.42;;;7.80;;
77214;SDS011;66210;53.282;9.864;2024-01-10T04:34:21;15.68;;;8.10;;
77214;SDS011;66210;53.282;9.864;2024-01-10T04:36:49;18.73;;;9.63;;
77214;SDS011;66210;53.282;9.864;2024-01-10T04:39:15;19.88;;;9.55;;
77214;SDS011;66210;53.282;9.864;2024-01-10T04:41:42;18.30;;;10.27;;
77214;SDS011;66210;53.282;9.864;2024-01-10T04:44:08;18.98;;;10.02;;
77214;SDS011;66210;53.282;9.864;2024-01-10T04:46:35;18.40;;;9.80;;
77214;SDS011;66210;53.282;9.864;2024-01-10T04:49:01;22.23;;;10.20;;
77214;SDS011;66210;53.282;9.864;2024-01-10T04:51:28;22.88;;;11.35;;
77214;SDS011;66210;53.282;9.864;2024-01-10T04:53:55;25.50;;;10.02;;
77214;SDS011;66210;53.282;9.864;2024-01-10T04:56:22;22.40;;;10.15;;
77214;SDS011;66210;53.282;9.864;2024-01-10T04:58:48;22.55;;;11.00;;
77214;SDS011;66210;53.282;9.864;2024-01-10T05:01:15;23.88;;;10.65;;
77214;SDS011;66210;53.282;9.864;2024-01-10T05:03:42;17.55;;;10.75;;
77214;SDS011;66210;53.282;9.864;2024-01-10T05:06:08;25.05;;;11.02;;
77214;SDS011;66210;53.282;9.864;2024-01-10T05:08:35;20.05;;;9.25;;
77214;SDS011;66210;53.282;9.864;2024-01-10T05:11:02;21.00;;;9.25;;
77214;SDS011;66210;53.282;9.864;2024-01-10T05:13:28;26.67;;;10.77;;
77214;SDS011;66210;53.282;9.864;2024-01-10T05:15:55;19.65;;;9.10;;
77214;SDS011;66210;53.282;9.864;2024-01-10T05:18:22;20.27;;;9.18;;
77214;SDS011;66210;53.282;9.864;2024-01-10T05:20:48;26.27;;;10.75;;
77214;SDS011;66210;53.282;9.864;2024-01-10T05:23:15;21.02;;;10.07;;
77214;SDS011;66210;53.282;9.864;2024-01-10T05:25:41;22.63;;;11.25;;
77214;SDS011;66210;53.282;9.864;2024-01-10T05:28:08;24.33;;;10.40;;
77214;SDS011;66210;53.282;9.864;2024-01-10T05:30:34;20.50;;;10.40;;
77214;SDS011;66210;53.282;9.864;2024-01-10T05:33:01;26.02;;;11.68;;
77214;SDS011;66210;53.282;9.864;2024-01-10T05:35:28;22.15;;;11.35;;
77214;SDS011;66210;53.282;9.864;2024-01-10T05:37:55;23.65;;;11.27;;
77214;SDS011;66210;53.282;9.864;2024-01-10T05:40:22;21.30;;;10.88;;
77214;SDS011;66210;53.282;9.864;2024-01-10T05:42:49;26.70;;;11.43;;
77214;SDS011;66210;53.282;9.864;2024-01-10T05:45:16;20.73;;;10.73;;
77214;SDS011;66210;53.282;9.864;2024-01-10T05:47:44;28.23;;;11.27;;
77214;SDS011;66210;53.282;9.864;2024-01-10T05:50:11;22.33;;;10.63;;
77214;SDS011;66210;53.282;9.864;2024-01-10T05:52:38;21.60;;;10.10;;
77214;SDS011;66210;53.282;9.864;2024-01-10T05:55:05;17.65;;;9.25;;
77214;SDS011;66210;53.282;9.864;2024-01-10T05:57:33;22.30;;;10.30;;
77214;SDS011;66210;53.282;9.864;2024-01-10T05:59:59;26.83;;;11.48;;
77214;SDS011;66210;53.282;9.864;2024-01-10T06:02:26;24.02;;;11.38;;
77214;SDS011;66210;53.282;9.864;2024-01-10T06:04:53;22.65;;;10.77;;
77214;SDS011;66210;53.282;9.864;2024-01-10T06:07:20;25.08;;;11.75;;
77214;SDS011;66210;53.282;9.864;2024-01-10T06:09:47;24.13;;;10.88;;
77214;SDS011;66210;53.282;9.864;2024-01-10T06:12:14;23.88;;;11.10;;
77214;SDS011;66210;53.282;9.864;2024-01-10T06:14:40;24.02;;;12.10;;
77214;SDS011;66210;53.282;9.864;2024-01-10T06:17:07;20.17;;;10.27;;
77214;SDS011;66210;53.282;9.864;2024-01-10T06:19:34;24.65;;;11.63;;
77214;SDS011;66210;53.282;9.864;2024-01-10T06:22:00;21.33;;;10.00;;
77214;SDS011;66210;53.282;9.864;2024-01-10T06:24:27;20.30;;;10.15;;
77214;SDS011;66210;53.282;9.864;2024-01-10T06:26:54;24.40;;;11.98;;
77214;SDS011;66210;53.282;9.864;2024-01-10T06:29:21;23.15;;;10.25;;
77214;SDS011;66210;53.282;9.864;2024-01-10T06:31:47;21.58;;;10.25;;
77214;SDS011;66210;53.282;9.864;2024-01-10T06:34:14;21.85;;;10.75;;
77214;SDS011;66210;53.282;9.864;2024-01-10T06:36:41;19.35;;;9.07;;
77214;SDS011;66210;53.282;9.864;2024-01-10T06:39:09;21.52;;;8.80;;
77214;SDS011;66210;53.282;9.864;2024-01-10T06:41:40;22.33;;;9.20;;
77214;SDS011;66210;53.282;9.864;2024-01-10T06:44:06;22.92;;;9.52;;
77214;SDS011;66210;53.282;9.864;2024-01-10T06:46:33;17.40;;;9.02;;
77214;SDS011;66210;53.282;9.864;2024-01-10T06:49:00;18.70;;;8.57;;
77214;SDS011;66210;53.282;9.864;2024-01-10T06:51:28;19.20;;;8.15;;
77214;SDS011;66210;53.282;9.864;2024-01-10T06:53:54;21.35;;;9.27;;
77214;SDS011;66210;53.282;9.864;2024-01-10T06:56:30;22.25;;;10.00;;
77214;SDS011;66210;53.282;9.864;2024-01-10T06:58:58;21.20;;;8.15;;
77214;SDS011;66210;53.282;9.864;2024-01-10T07:01:26;16.00;;;7.18;;
77214;SDS011;66210;53.282;9.864;2024-01-10T07:03:53;15.00;;;6.78;;
77214;SDS011;66210;53.282;9.864;2024-01-10T07:06:23;17.20;;;7.80;;
77214;SDS011;66210;53.282;9.864;2024-01-10T07:08:51;17.75;;;8.23;;
77214;SDS011;66210;53.282;9.864;2024-01-10T07:11:17;14.85;;;7.40;;
77214;SDS011;66210;53.282;9.864;2024-01-10T07:13:46;17.77;;;7.93;;
77214;SDS011;66210;53.282;9.864;2024-01-10T07:16:13;21.92;;;8.40;;
77214;SDS011;66210;53.282;9.864;2024-01-10T07:18:43;18.75;;;8.50;;
77214;SDS011;66210;53.282;9.864;2024-01-10T07:21:11;18.83;;;8.73;;
77214;SDS011;66210;53.282;9.864;2024-01-10T07:23:38;26.45;;;9.40;;
77214;SDS011;66210;53.282;9.864;2024-01-10T07:26:07;21.25;;;9.35;;
77214;SDS011;66210;53.282;9.864;2024-01-10T07:28:33;18.27;;;8.90;;
77214;SDS011;66210;53.282;9.864;2024-01-10T07:31:00;23.02;;;9.13;;
77214;SDS011;66210;53.282;9.864;2024-01-10T07:33:29;14.88;;;7.35;;
77214;SDS011;66210;53.282;9.864;2024-01-10T07:35:57;14.63;;;7.38;;
77214;SDS011;66210;53.282;9.864;2024-01-10T07:38:24;15.30;;;7.25;;
77214;SDS011;66210;53.282;9.864;2024-01-10T07:40:51;14.68;;;7.95;;
77214;SDS011;66210;53.282;9.864;2024-01-10T07:43:18;15.75;;;8.23;;
77214;SDS011;66210;53.282;9.864;2024-01-10T07:45:44;17.08;;;7.75;;
77214;SDS011;66210;53.282;9.864;2024-01-10T07:48:11;16.60;;;8.07;;
77214;SDS011;66210;53.282;9.864;2024-01-10T07:50:38;15.85;;;8.23;;
77214;SDS011;66210;53.282;9.864;2024-01-10T07:53:05;21.85;;;7.53;;
77214;SDS011;66210;53.282;9.864;2024-01-10T07:55:32;17.83;;;7.68;;
77214;SDS011;66210;53.282;9.864;2024-01-10T07:57:58;24.20;;;7.93;;
77214;SDS011;66210;53.282;9.864;2024-01-10T08:00:26;18.33;;;7.70;;
77214;SDS011;66210;53.282;9.864;2024-01-10T08:02:52;21.00;;;9.25;;
77214;SDS011;66210;53.282;9.864;2024-01-10T08:05:19;15.77;;;7.55;;
77214;SDS011;66210;53.282;9.864;2024-01-10T08:07:47;19.92;;;8.18;;
77214;SDS011;66210;53.282;9.864;2024-01-10T08:10:14;17.33;;;7.65;;
77214;SDS011;66210;53.282;9.864;2024-01-10T08:12:41;20.10;;;7.93;;
77214;SDS011;66210;53.282;9.864;2024-01-10T08:15:08;15.65;;;6.75;;
77214;SDS011;66210;53.282;9.864;2024-01-10T08:17:36;14.52;;;6.95;;
77214;SDS011;66210;53.282;9.864;2024-01-10T08:20:05;15.45;;;7.15;;
77214;SDS011;66210;53.282;9.864;2024-01-10T08:22:32;18.63;;;8.50;;
77214;SDS011;66210;53.282;9.864;2024-01-10T08:24:59;16.38;;;7.65;;
77214;SDS011;66210;53.282;9.864;2024-01-10T08:27:26;15.35;;;7.65;;
77214;SDS011;66210;53.282;9.864;2024-01-10T08:29:53;16.42;;;7.63;;
77214;SDS011;66210;53.282;9.864;2024-01-10T08:32:20;18.58;;;7.55;;
77214;SDS011;66210;53.282;9.864;2024-01-10T08:34:49;18.60;;;8.27;;
77214;SDS011;66210;53.282;9.864;2024-01-10T08:37:17;16.38;;;7.60;;
77214;SDS011;66210;53.282;9.864;2024-01-10T08:39:44;16.23;;;7.93;;
77214;SDS011;66210;53.282;9.864;2024-01-10T08:42:10;13.77;;;7.03;;
77214;SDS011;66210;53.282;9.864;2024-01-10T08:44:38;15.73;;;7.93;;
77214;SDS011;66210;53.282;9.864;2024-01-10T08:47:06;18.50;;;7.85;;
77214;SDS011;66210;53.282;9.864;2024-01-10T08:49:33;19.52;;;8.75;;
77214;SDS011;66210;53.282;9.864;2024-01-10T08:52:00;15.77;;;7.90;;
77214;SDS011;66210;53.282;9.864;2024-01-10T08:54:28;15.82;;;8.15;;
77214;SDS011;66210;53.282;9.864;2024-01-10T08:56:55;21.55;;;8.82;;
77214;SDS011;66210;53.282;9.864;2024-01-10T08:59:22;16.65;;;7.88;;
77214;SDS011;66210;53.282;9.864;2024-01-10T09:01:48;16.15;;;7.43;;
77214;SDS011;66210;53.282;9.864;2024-01-10T09:04:15;15.98;;;7.43;;
77214;SDS011;66210;53.282;9.864;2024-01-10T09:06:42;14.00;;;7.35;;
77214;SDS011;66210;53.282;9.864;2024-01-10T09:09:09;18.08;;;7.90;;
77214;SDS011;66210;53.282;9.864;2024-01-10T09:11:36;17.15;;;7.60;;
77214;SDS011;66210;53.282;9.864;2024-01-10T09:14:07;17.90;;;8.63;;
77214;SDS011;66210;53.282;9.864;2024-01-10T09:16:37;14.00;;;7.10;;
77214;SDS011;66210;53.282;9.864;2024-01-10T09:19:06;21.92;;;8.93;;
77214;SDS011;66210;53.282;9.864;2024-01-10T09:21:37;18.50;;;8.15;;
77214;SDS011;66210;53.282;9.864;2024-01-10T09:24:04;17.52;;;7.65;;
77214;SDS011;66210;53.282;9.864;2024-01-10T09:26:52;20.70;;;7.60;;
77214;SDS011;66210;53.282;9.864;2024-01-10T09:29:20;15.63;;;8.27;;
77214;SDS011;66210;53.282;9.864;2024-01-10T09:31:46;15.02;;;7.72;;
77214;SDS011;66210;53.282;9.864;2024-01-10T09:34:13;17.52;;;7.07;;
77214;SDS011;66210;53.282;9.864;2024-01-10T09:36:40;15.35;;;7.95;;
77214;SDS011;66210;53.282;9.864;2024-01-10T09:39:07;17.80;;;7.63;;
77214;SDS011;66210;53.282;9.864;2024-01-10T09:41:40;15.57;;;7.50;;
77214;SDS011;66210;53.282;9.864;2024-01-10T09:44:15;13.35;;;7.20;;
77214;SDS011;66210;53.282;9.864;2024-01-10T09:46:51;17.23;;;7.82;;
77214;SDS011;66210;53.282;9.864;2024-01-10T09:49:19;17.20;;;7.80;;
77214;SDS011;66210;53.282;9.864;2024-01-10T09:51:50;19.50;;;8.25;;
77214;SDS011;66210;53.282;9.864;2024-01-10T09:54:24;19.00;;;7.60;;
77214;SDS011;66210;53.282;9.864;2024-01-10T09:56:53;17.13;;;7.40;;
77214;SDS011;66210;53.282;9.864;2024-01-10T09:59:20;15.40;;;7.18;;
77214;SDS011;66210;53.282;9.864;2024-01-10T10:01:47;16.95;;;8.38;;
77214;SDS011;66210;53.282;9.864;2024-01-10T10:04:14;21.67;;;8.05;;
77214;SDS011;66210;53.282;9.864;2024-01-10T10:06:44;20.40;;;7.72;;
77214;SDS011;66210;53.282;9.864;2024-01-10T10:09:13;19.02;;;7.20;;
77214;SDS011;66210;53.282;9.864;2024-01-10T10:11:40;14.88;;;6.97;;
77214;SDS011;66210;53.282;9.864;2024-01-10T10:14:13;19.10;;;8.25;;
77214;SDS011;66210;53.282;9.864;2024-01-10T10:16:42;13.57;;;7.13;;
77214;SDS011;66210;53.282;9.864;2024-01-10T10:19:09;23.77;;;8.30;;
77214;SDS011;66210;53.282;9.864;2024-01-10T10:21:42;17.35;;;7.78;;
77214;SDS011;66210;53.282;9.864;2024-01-10T10:24:09;17.33;;;7.30;;
77214;SDS011;66210;53.282;9.864;2024-01-10T10:26:41;20.80;;;8.40;;
77214;SDS011;66210;53.282;9.864;2024-01-10T10:29:08;17.10;;;6.80;;
77214;SDS011;66210;53.282;9.864;2024-01-10T10:31:35;17.65;;;7.07;;
77214;SDS011;66210;53.282;9.864;2024-01-10T10:34:02;22.70;;;7.93;;
77214;SDS011;66210;53.282;9.864;2024-01-10T10:36:32;17.55;;;6.75;;
77214;SDS011;66210;53.282;9.864;2024-01-10T10:38:59;18.42;;;8.90;;
77214;SDS011;66210;53.282;9.864;2024-01-10T10:41:31;15.52;;;7.18;;
77214;SDS011;66210;53.282;9.864;2024-01-10T10:43:58;15.32;;;7.28;;
77214;SDS011;66210;53.282;9.864;2024-01-10T10:46:26;16.73;;;7.25;;
77214;SDS011;66210;53.282;9.864;2024-01-10T10:48:54;17.80;;;7.95;;
77214;SDS011;66210;53.282;9.864;2024-01-10T10:51:27;18.05;;;7.05;;
77214;SDS011;66210;53.282;9.864;2024-01-10T10:53:59;19.38;;;8.25;;
77214;SDS011;66210;53.282;9.864;2024-01-10T10:56:29;18.95;;;7.38;;
77214;SDS011;66210;53.282;9.864;2024-01-10T10:58:59;15.27;;;7.35;;
77214;SDS011;66210;53.282;9.864;2024-01-10T11:01:27;17.55;;;7.68;;
77214;SDS011;66210;53.282;9.864;2024-01-10T11:03:55;19.98;;;8.15;;
77214;SDS011;66210;53.282;9.864;2024-01-10T11:06:22;16.90;;;7.20;;
77214;SDS011;66210;53.282;9.864;2024-01-10T11:08:53;14.25;;;7.25;;
77214;SDS011;66210;53.282;9.864;2024-01-10T11:14:38;18.27;;;7.80;;
77214;SDS011;66210;53.282;9.864;2024-01-10T11:20:26;15.73;;;6.88;;
77214;SDS011;66210;53.282;9.864;2024-01-10T11:23:17;12.55;;;6.35;;
77214;SDS011;66210;53.282;9.864;2024-01-10T11:25:58;12.02;;;5.72;;
77214;SDS011;66210;53.282;9.864;2024-01-10T11:28:25;19.55;;;7.28;;
77214;SDS011;66210;53.282;9.864;2024-01-10T11:30:55;15.25;;;7.68;;
77214;SDS011;66210;53.282;9.864;2024-01-10T11:33:33;17.00;;;7.35;;
77214;SDS011;66210;53.282;9.864;2024-01-10T11:36:17;19.65;;;8.00;;
77214;SDS011;66210;53.282;9.864;2024-01-10T11:41:21;17.70;;;7.90;;
77214;SDS011;66210;53.282;9.864;2024-01-10T11:46:47;14.07;;;7.03;;
77214;SDS011;66210;53.282;9.864;2024-01-10T11:49:16;12.93;;;6.68;;
77214;SDS011;66210;53.282;9.864;2024-01-10T11:51:45;17.67;;;7.25;;
77214;SDS011;66210;53.282;9.864;2024-01-10T11:59:42;13.43;;;5.85;;
77214;SDS011;66210;53.282;9.864;2024-01-10T12:02:16;16.92;;;6.65;;
77214;SDS011;66210;53.282;9.864;2024-01-10T12:04:43;12.60;;;6.68;;
77214;SDS011;66210;53.282;9.864;2024-01-10T12:07:15;14.45;;;7.43;;
77214;SDS011;66210;53.282;9.864;2024-01-10T12:09:44;15.55;;;6.60;;
77214;SDS011;66210;53.282;9.864;2024-01-10T12:12:12;16.45;;;7.63;;
77214;SDS011;66210;53.282;9.864;2024-01-10T12:14:40;15.35;;;7.38;;
77214;SDS011;66210;53.282;9.864;2024-01-10T12:17:09;17.77;;;7.32;;
77214;SDS011;66210;53.282;9.864;2024-01-10T12:19:36;22.30;;;7.53;;
77214;SDS011;66210;53.282;9.864;2024-01-10T12:22:04;17.50;;;7.93;;
77214;SDS011;66210;53.282;9.864;2024-01-10T12:24:39;17.17;;;7.80;;
77214;SDS011;66210;53.282;9.864;2024-01-10T12:27:11;13.88;;;8.10;;
77214;SDS011;66210;53.282;9.864;2024-01-10T12:29:38;13.55;;;6.93;;
77214;SDS011;66210;53.282;9.864;2024-01-10T12:32:07;14.70;;;7.25;;
77214;SDS011;66210;53.282;9.864;2024-01-10T12:34:39;14.00;;;7.15;;
77214;SDS011;66210;53.282;9.864;2024-01-10T12:37:06;15.93;;;7.60;;
77214;SDS011;66210;53.282;9.864;2024-01-10T12:39:33;16.75;;;7.68;;
77214;SDS011;66210;53.282;9.864;2024-01-10T12:42:00;13.38;;;7.30;;
77214;SDS011;66210;53.282;9.864;2024-01-10T12:44:28;14.07;;;6.47;;
77214;SDS011;66210;53.282;9.864;2024-01-10T12:46:56;14.05;;;7.25;;
77214;SDS011;66210;53.282;9.864;2024-01-10T12:49:23;14.95;;;7.28;;
77214;SDS011;66210;53.282;9.864;2024-01-10T12:51:50;17.45;;;7.75;;
77214;SDS011;66210;53.282;9.864;2024-01-10T12:54:18;12.52;;;6.57;;
77214;SDS011;66210;53.282;9.864;2024-01-10T12:56:45;13.68;;;6.78;;
77214;SDS011;66210;53.282;9.864;2024-01-10T12:59:12;14.15;;;6.65;;
77214;SDS011;66210;53.282;9.864;2024-01-10T13:01:39;10.68;;;5.82;;
77214;SDS011;66210;53.282;9.864;2024-01-10T13:04:06;15.82;;;7.00;;
77214;SDS011;66210;53.282;9.864;2024-01-10T13:06:35;13.30;;;6.60;;
77214;SDS011;66210;53.282;9.864;2024-01-10T13:09:02;13.57;;;6.97;;
77214;SDS011;66210;53.282;9.864;2024-01-10T13:11:28;13.88;;;7.03;;
77214;SDS011;66210;53.282;9.864;2024-01-10T13:13:56;19.90;;;7.90;;
77214;SDS011;66210;53.282;9.864;2024-01-10T13:16:23;14.57;;;7.07;;
77214;SDS011;66210;53.282;9.864;2024-01-10T13:18:50;13.30;;;6.35;;
77214;SDS011;66210;53.282;9.864;2024-01-10T13:21:17;13.05;;;6.55;;
77214;SDS011;66210;53.282;9.864;2024-01-10T13:23:44;14.05;;;6.35;;
77214;SDS011;66210;53.282;9.864;2024-01-10T13:26:11;13.48;;;6.18;;
77214;SDS011;66210;53.282;9.864;2024-01-10T13:28:38;10.02;;;6.05;;
77214;SDS011;66210;53.282;9.864;2024-01-10T13:31:05;11.15;;;5.90;;
77214;SDS011;66210;53.282;9.864;2024-01-10T13:33:32;13.18;;;7.18;;
77214;SDS011;66210;53.282;9.864;2024-01-10T13:35:59;10.73;;;6.00;;
77214;SDS011;66210;53.282;9.864;2024-01-10T13:38:27;11.65;;;5.68;;
77214;SDS011;66210;53.282;9.864;2024-01-10T13:40:53;11.52;;;5.97;;
77214;SDS011;66210;53.282;9.864;2024-01-10T13:43:20;11.63;;;5.93;;
77214;SDS011;66210;53.282;9.864;2024-01-10T13:45:46;10.98;;;5.57;;
77214;SDS011;66210;53.282;9.864;2024-01-10T13:48:13;14.63;;;6.25;;
77214;SDS011;66210;53.282;9.864;2024-01-10T13:50:40;14.40;;;5.95;;
77214;SDS011;66210;53.282;9.864;2024-01-10T13:53:08;12.00;;;5.63;;
77214;SDS011;66210;53.282;9.864;2024-01-10T13:55:36;11.68;;;5.55;;
77214;SDS011;66210;53.282;9.864;2024-01-10T13:58:03;11.38;;;6.05;;
77214;SDS011;66210;53.282;9.864;2024-01-10T14:00:29;12.68;;;6.28;;
77214;SDS011;66210;53.282;9.864;2024-01-10T14:02:56;12.80;;;6.03;;
77214;SDS011;66210;53.282;9.864;2024-01-10T14:05:26;12.90;;;6.10;;
77214;SDS011;66210;53.282;9.864;2024-01-10T14:07:54;11.68;;;6.07;;
77214;SDS011;66210;53.282;9.864;2024-01-10T14:10:21;11.45;;;5.55;;
77214;SDS011;66210;53.282;9.864;2024-01-10T14:12:47;11.85;;;6.18;;
77214;SDS011;66210;53.282;9.864;2024-01-10T14:15:14;10.73;;;5.45;;
77214;SDS011;66210;53.282;9.864;2024-01-10T14:17:41;13.02;;;6.32;;
77214;SDS011;66210;53.282;9.864;2024-01-10T14:20:08;14.63;;;6.70;;
77214;SDS011;66210;53.282;9.864;2024-01-10T14:22:36;16.55;;;6.85;;
77214;SDS011;66210;53.282;9.864;2024-01-10T14:25:03;12.77;;;6.63;;
77214;SDS011;66210;53.282;9.864;2024-01-10T14:27:31;11.75;;;6.40;;
77214;SDS011;66210;53.282;9.864;2024-01-10T14:29:58;12.45;;;6.00;;
77214;SDS011;66210;53.282;9.864;2024-01-10T14:32:26;11.90;;;6.07;;
77214;SDS011;66210;53.282;9.864;2024-01-10T14:34:53;12.68;;;6.30;;
77214;SDS011;66210;53.282;9.864;2024-01-10T14:37:20;13.63;;;6.43;;
77214;SDS011;66210;53.282;9.864;2024-01-10T14:39:47;11.43;;;6.32;;
77214;SDS011;66210;53.282;9.864;2024-01-10T14:42:14;14.50;;;7.18;;
77214;SDS011;66210;53.282;9.864;2024-01-10T14:44:40;13.43;;;6.15;;
77214;SDS011;66210;53.282;9.864;2024-01-10T14:47:07;15.18;;;7.22;;
77214;SDS011;66210;53.282;9.864;2024-01-10T14:49:38;17.00;;;7.60;;
77214;SDS011;66210;53.282;9.864;2024-01-10T14:52:05;13.95;;;7.25;;